»·PEaware :: SWA1243 KSFO-KLAX

SWA1243 :: KSFO-KLAX

FLIGHT INFORMATION

Flight Status: Arrived
Operator:
Southwest Airlines
More flights by this operator :: More flights under this callsign
Pilot: Maximilliano F. (23467)
Aircraft: BOEING 737-800
(B738)
More flights by this aircraft type
Origin: KSFO San Francisco Intl
United States
Destination: KLAX Los Angeles Intl
United States
More flights between these airports :: More routes between these airports
Route: +SAHEY3 EBAYE BURGL IRNMN2
File this flight plan on PilotEdge
Remarks:
Altitude:
(Current/Filed)
35,000ft
Speed:
(Current/Filed)
453kts
Departed: 15-May-19 09:27 PM
Arrived: 15-May-19 10:26 PM
Distance/Time
Traveled:
293nm/0:59
Distance/Time
To Go:
Arrived

Flight Plot

Page will automatically refresh every two minutes.


Map Options




Map Legend


Flown Route
Filed Route
Departure Airport
Arrival Airport
Navaid (VOR, NDB)
Fix

Horizontal Profiles

Position Reports

Time Latitude Longitude Heading Altitude Ground
Speed
15-May-19 20:45 37.619453 -122.384849 119 21ft 0kts
15-May-19 20:46 37.619453 -122.384849 119 21ft 0kts
15-May-19 20:47 37.619453 -122.384849 119 21ft 0kts
15-May-19 20:48 37.619453 -122.384849 119 21ft 0kts
15-May-19 20:49 37.619453 -122.384849 119 21ft 0kts
15-May-19 20:50 37.619453 -122.384849 119 21ft 0kts
15-May-19 20:51 37.619453 -122.384849 119 21ft 0kts
15-May-19 20:52 37.619453 -122.384849 119 21ft 0kts
15-May-19 20:53 37.619453 -122.384849 119 21ft 0kts
15-May-19 20:55 37.619453 -122.384849 119 21ft 0kts
15-May-19 20:56 37.619453 -122.384849 119 21ft 0kts
15-May-19 20:57 37.619453 -122.384849 119 21ft 0kts
15-May-19 20:58 37.619453 -122.384849 119 21ft 0kts
15-May-19 20:59 37.619453 -122.384849 119 21ft 0kts
15-May-19 21:00 37.619453 -122.384849 119 21ft 0kts
15-May-19 21:01 37.619453 -122.384849 119 21ft 0kts
15-May-19 21:02 37.619453 -122.384849 119 21ft 0kts
15-May-19 21:03 37.619453 -122.384849 119 21ft 0kts
15-May-19 21:04 37.619453 -122.384849 119 21ft 0kts
15-May-19 21:05 37.619453 -122.384849 119 21ft 0kts
15-May-19 21:06 37.619453 -122.384849 119 21ft 0kts
15-May-19 21:07 37.619453 -122.384849 119 21ft 0kts
15-May-19 21:08 37.619453 -122.384849 119 21ft 0kts
15-May-19 21:09 37.619453 -122.384849 119 21ft 0kts
15-May-19 21:10 37.619453 -122.384849 119 21ft 0kts
15-May-19 21:11 37.619453 -122.384849 119 21ft 0kts
15-May-19 21:12 37.619529 -122.385018 119 21ft 2kts
15-May-19 21:13 37.619532 -122.385649 41 21ft 2kts
15-May-19 21:14 37.619419 -122.385739 27 21ft 0kts
15-May-19 21:15 37.619419 -122.385739 27 21ft 0kts
15-May-19 21:15 37.619419 -122.385739 27 21ft 0kts
15-May-19 21:17 37.619419 -122.385739 27 21ft 0kts
15-May-19 21:18 37.619419 -122.385739 27 21ft 0kts
15-May-19 21:19 37.619541 -122.385659 27 21ft 0kts
15-May-19 21:20 37.620539 -122.385005 17 21ft 4kts
15-May-19 21:20 37.621484 -122.386379 299 20ft 7kts
15-May-19 21:22 37.622954 -122.389614 352 21ft 2kts
15-May-19 21:22 37.624131 -122.390922 297 21ft 7kts
15-May-19 21:23 37.625519 -122.393472 28 20ft 0kts
15-May-19 21:24 37.625518 -122.393471 29 20ft 0kts
15-May-19 21:25 37.626071 -122.393119 26 21ft 5kts
15-May-19 21:27 37.622062 -122.383026 118 21ft 126kts
15-May-19 21:27 37.605582 -122.342000 125 1641ft 173kts
15-May-19 21:28 37.579072 -122.273722 120 3627ft 251kts
15-May-19 21:29 37.536021 -122.207096 145 7162ft 252kts
15-May-19 21:30 37.482213 -122.146058 145 10193ft 276kts
15-May-19 21:31 37.443937 -122.106012 147 11635ft 305kts
15-May-19 21:32 37.377448 -122.036485 146 15055ft 319kts
15-May-19 21:33 37.307801 -121.963724 146 18299ft 334kts
15-May-19 21:34 37.234678 -121.887407 146 21145ft 352kts
15-May-19 21:35 37.157508 -121.807074 147 23720ft 371kts
15-May-19 21:36 37.076666 -121.723133 147 26151ft 386kts
15-May-19 21:37 36.992366 -121.635881 148 28404ft 401kts
15-May-19 21:38 36.905051 -121.545738 149 30478ft 414kts
15-May-19 21:39 36.815985 -121.454056 150 32761ft 419kts
15-May-19 21:40 36.726374 -121.362184 150 34744ft 423kts
15-May-19 21:41 36.632429 -121.266281 150 34755ft 459kts
15-May-19 21:42 36.533701 -121.165488 150 34789ft 458kts
15-May-19 21:43 36.436052 -121.062732 144 34851ft 468kts
15-May-19 21:44 36.347728 -120.941570 139 34887ft 475kts
15-May-19 21:45 36.261739 -120.818015 139 34889ft 474kts
15-May-19 21:46 36.174894 -120.693905 139 34888ft 477kts
15-May-19 21:47 36.088061 -120.570271 139 34890ft 479kts
15-May-19 21:48 36.000437 -120.445961 139 34890ft 480kts
15-May-19 21:49 35.912890 -120.324655 145 34891ft 474kts
15-May-19 21:50 35.815252 -120.223333 154 34911ft 463kts
15-May-19 21:51 35.707297 -120.138697 157 34909ft 459kts
15-May-19 21:52 35.598345 -120.056636 157 34908ft 459kts
15-May-19 21:53 35.489515 -119.974611 157 34913ft 461kts
15-May-19 21:54 35.380615 -119.892771 157 34928ft 452kts
15-May-19 21:55 35.278872 -119.814318 153 34952ft 430kts
15-May-19 21:56 35.182986 -119.725229 152 34946ft 435kts
15-May-19 21:57 35.087634 -119.636236 152 33632ft 433kts
15-May-19 21:58 34.991907 -119.547205 151 30244ft 436kts
15-May-19 21:59 34.897494 -119.459844 152 27565ft 415kts
15-May-19 22:00 34.822347 -119.393004 152 25503ft 399kts
15-May-19 22:01 34.750735 -119.328876 153 24589ft 365kts
15-May-19 22:02 34.663952 -119.253166 153 22832ft 377kts
15-May-19 22:03 34.580616 -119.181231 152 21015ft 365kts
15-May-19 22:04 34.498291 -119.108772 151 19242ft 367kts
15-May-19 22:05 34.415572 -119.035913 151 17480ft 367kts
15-May-19 22:06 34.334809 -118.965955 150 15814ft 345kts
15-May-19 22:07 34.257928 -118.896040 149 14175ft 346kts
15-May-19 22:08 34.181658 -118.826005 148 12453ft 347kts
15-May-19 22:09 34.112822 -118.754075 142 11203ft 302kts
15-May-19 22:10 34.055114 -118.691155 143 10350ft 259kts
15-May-19 22:11 34.023460 -118.607768 99 9466ft 292kts
15-May-19 22:12 34.015324 -118.511624 99 8348ft 289kts
15-May-19 22:13 34.015978 -118.416193 81 6906ft 282kts
15-May-19 22:14 34.029577 -118.331543 81 5762ft 252kts
15-May-19 22:15 34.041738 -118.254043 81 4981ft 230kts
15-May-19 22:16 34.053465 -118.177723 81 4980ft 231kts
15-May-19 22:17 34.064009 -118.101448 101 4958ft 227kts
15-May-19 22:18 34.023127 -118.099055 230 4983ft 198kts
15-May-19 22:19 33.987231 -118.148944 213 4326ft 196kts
15-May-19 22:20 33.971455 -118.208013 263 3368ft 197kts
15-May-19 22:21 33.965298 -118.272874 262 2312ft 182kts
15-May-19 22:22 33.959712 -118.327887 262 1370ft 153kts
15-May-19 22:23 33.954590 -118.377918 262 567ft 148kts
15-May-19 22:24 33.950375 -118.418700 264 135ft 41kts
15-May-19 22:25 33.948578 -118.426702 228 135ft 0kts
15-May-19 22:26 33.946225 -118.427569 109 134ft 10kts
15-May-19 22:27 33.946746 -118.423154 83 135ft 16kts
15-May-19 22:28 33.947278 -118.418020 82 135ft 19kts
15-May-19 22:29 33.948094 -118.411302 82 135ft 19kts
15-May-19 22:30 33.948781 -118.404671 83 135ft 22kts
15-May-19 22:31 33.948543 -118.400606 125 134ft 4kts
15-May-19 22:32 33.948137 -118.400035 180 135ft 0kts
15-May-19 22:33 33.947771 -118.400357 244 134ft 0kts
15-May-19 22:34 33.947681 -118.400584 244 135ft 0kts

Navigation Log

Ident Type
Flight plan parsing failed, navigation log unavailable